createdAt,value
2023-08-01T00:00:12.721Z,12.93
2023-08-01T00:02:43.583Z,11.53
2023-08-01T00:05:12.866Z,28.97
2023-08-01T00:07:41.780Z,25.50
2023-08-01T00:10:11.374Z,37.13
2023-08-01T00:12:41.408Z,13.23
2023-08-01T00:15:11.316Z,9.27
2023-08-01T00:17:40.045Z,10.80
2023-08-01T00:20:09.949Z,11.73
2023-08-01T00:22:38.522Z,19.90
2023-08-01T00:25:08.416Z,19.60
2023-08-01T00:27:39.820Z,17.43
2023-08-01T00:30:12.106Z,14.30
2023-08-01T00:32:40.986Z,14.83
2023-08-01T00:35:10.269Z,20.37
2023-08-01T00:37:40.215Z,17.37
2023-08-01T00:40:10.645Z,5.07
2023-08-01T00:42:40.088Z,3.40
2023-08-01T00:45:11.839Z,3.40
2023-08-01T00:47:41.075Z,3.80
2023-08-01T00:50:10.282Z,4.23
2023-08-01T00:52:39.060Z,4.27
2023-08-01T00:55:09.204Z,4.87
2023-08-01T00:57:38.137Z,7.67
2023-08-01T01:00:08.179Z,6.93
2023-08-01T01:02:39.200Z,7.07
2023-08-01T01:05:08.901Z,6.63
2023-08-01T01:07:37.824Z,10.10
2023-08-01T01:10:06.768Z,6.70
2023-08-01T01:12:35.436Z,4.10
2023-08-01T01:15:04.559Z,5.27
2023-08-01T01:17:33.210Z,4.90
2023-08-01T01:20:03.525Z,6.60
2023-08-01T01:22:35.292Z,7.43
2023-08-01T01:25:04.878Z,5.50
2023-08-01T01:27:34.046Z,3.80
2023-08-01T01:30:04.985Z,4.03
2023-08-01T01:32:33.760Z,3.80
2023-08-01T01:35:04.766Z,3.50
2023-08-01T01:37:35.022Z,2.93
2023-08-01T01:40:04.249Z,2.73
2023-08-01T01:42:33.178Z,3.03
2023-08-01T01:45:02.784Z,3.27
2023-08-01T01:47:31.789Z,3.30
2023-08-01T01:50:01.030Z,3.47
2023-08-01T01:52:31.114Z,3.90
2023-08-01T01:55:03.194Z,5.30
2023-08-01T01:57:31.923Z,3.63
2023-08-01T02:00:01.085Z,4.13
2023-08-01T02:02:29.870Z,3.70
2023-08-01T02:04:59.093Z,3.70
2023-08-01T02:07:27.977Z,3.30
2023-08-01T02:09:57.635Z,3.53
2023-08-01T02:12:27.847Z,3.13
2023-08-01T02:14:56.672Z,4.27
2023-08-01T02:17:25.466Z,4.10
2023-08-01T02:19:54.669Z,3.40
2023-08-01T02:22:23.261Z,3.30
2023-08-01T02:24:54.597Z,4.20
2023-08-01T02:27:23.105Z,5.30
2023-08-01T02:29:53.438Z,8.17
2023-08-01T02:32:22.203Z,6.23
2023-08-01T02:34:51.399Z,5.60
2023-08-01T02:37:20.114Z,5.03
2023-08-01T02:39:48.906Z,4.40
2023-08-01T02:42:17.722Z,7.23
2023-08-01T02:44:46.412Z,13.40
2023-08-01T02:47:16.579Z,19.80
2023-08-01T02:49:45.917Z,27.93
2023-08-01T02:52:14.488Z,31.60
2023-08-01T02:54:43.852Z,29.33
2023-08-01T03:00:12.836Z,18.73
2023-08-01T03:02:43.653Z,14.80
2023-08-01T03:05:13.248Z,33.67
2023-08-01T03:07:41.822Z,22.93
2023-08-01T03:10:17.135Z,81.57
2023-08-01T03:12:52.139Z,52.80
2023-08-01T03:15:21.464Z,58.43
2023-08-01T03:17:51.665Z,119.87
2023-08-01T03:20:20.863Z,120.20
2023-08-01T03:22:49.969Z,77.23
2023-08-01T03:25:19.120Z,61.13
2023-08-01T03:27:48.150Z,52.27
2023-08-01T03:30:17.231Z,45.50
2023-08-01T03:32:46.596Z,30.00
2023-08-01T03:35:17.377Z,22.37
2023-08-01T03:37:46.219Z,17.73
2023-08-01T03:40:15.340Z,17.50
2023-08-01T03:42:45.286Z,15.27
2023-08-01T03:45:14.309Z,14.87
2023-08-01T03:47:42.945Z,12.00
2023-08-01T03:50:13.334Z,14.17
2023-08-01T03:52:43.388Z,17.57
2023-08-01T03:55:13.014Z,19.00
2023-08-01T03:57:42.294Z,21.80
2023-08-01T04:00:14.987Z,20.83
2023-08-01T04:02:46.649Z,22.43
2023-08-01T04:05:17.274Z,35.00
2023-08-01T04:07:47.691Z,34.33
2023-08-01T04:10:16.590Z,43.37
2023-08-01T04:12:45.850Z,31.30
2023-08-01T04:15:14.455Z,23.80
2023-08-01T04:20:14.124Z,9.37
2023-08-01T04:22:43.240Z,9.57
2023-08-01T04:25:13.855Z,9.17
2023-08-01T04:27:43.160Z,9.37
2023-08-01T04:30:12.922Z,9.93
2023-08-01T04:32:42.435Z,11.50
2023-08-01T04:35:11.550Z,11.33
2023-08-01T04:37:40.581Z,12.60
2023-08-01T04:40:10.674Z,14.60
2023-08-01T04:42:40.978Z,13.80
2023-08-01T04:45:10.717Z,14.53
2023-08-01T04:47:39.912Z,14.50
2023-08-01T04:50:09.589Z,12.73
2023-08-01T04:52:38.509Z,12.77
2023-08-01T04:55:08.639Z,16.80
2023-08-01T04:57:37.985Z,19.73
2023-08-01T05:00:10.066Z,16.40
2023-08-01T05:02:39.041Z,18.43
2023-08-01T05:05:08.924Z,20.10
2023-08-01T05:07:37.725Z,16.27
2023-08-01T05:10:07.096Z,15.00
2023-08-01T05:12:35.744Z,31.77
2023-08-01T05:15:05.197Z,31.20
2023-08-01T05:17:35.900Z,28.23
2023-08-01T05:20:05.744Z,21.07
2023-08-01T05:22:34.585Z,13.13
2023-08-01T05:25:08.678Z,10.40
2023-08-01T05:27:37.727Z,9.67
2023-08-01T05:30:07.068Z,8.23
2023-08-01T05:32:37.342Z,9.20
2023-08-01T05:35:06.522Z,11.73
2023-08-01T05:37:37.563Z,12.37
2023-08-01T05:40:07.259Z,11.07
2023-08-01T05:42:36.056Z,11.20
2023-08-01T05:45:05.519Z,11.10
2023-08-01T05:47:34.631Z,8.30
2023-08-01T05:50:05.354Z,8.80
2023-08-01T05:52:34.266Z,8.00
2023-08-01T05:55:03.081Z,8.53
2023-08-01T05:57:32.049Z,9.00
2023-08-01T06:00:00.588Z,19.83
2023-08-01T06:02:29.827Z,31.60
2023-08-01T06:04:59.020Z,24.63
2023-08-01T06:07:29.824Z,22.10
2023-08-01T06:09:58.736Z,15.30
2023-08-01T06:12:30.252Z,15.07
2023-08-01T06:14:59.248Z,12.03
2023-08-01T06:17:28.296Z,10.17
2023-08-01T06:19:57.105Z,9.87
2023-08-01T06:22:25.445Z,9.23
2023-08-01T06:24:57.949Z,7.60
2023-08-01T06:27:29.297Z,8.30
2023-08-01T06:29:58.388Z,12.00
2023-08-01T06:32:27.318Z,14.90
2023-08-01T06:34:56.544Z,14.53
2023-08-01T06:37:25.214Z,14.40
2023-08-01T06:39:54.206Z,12.00
2023-08-01T06:42:23.843Z,18.07
2023-08-01T06:44:52.561Z,17.30
2023-08-01T06:47:21.525Z,16.73
2023-08-01T06:49:52.144Z,15.60
2023-08-01T06:52:20.805Z,11.57
2023-08-01T06:54:49.570Z,10.97
2023-08-01T06:57:18.028Z,10.87
2023-08-01T06:59:48.349Z,10.67
2023-08-01T07:02:17.857Z,10.20
2023-08-01T07:04:49.750Z,10.03
2023-08-01T07:07:18.814Z,10.47
2023-08-01T07:09:47.540Z,10.07
2023-08-01T07:12:17.469Z,10.10
2023-08-01T07:14:47.570Z,8.50
2023-08-01T07:17:16.567Z,8.10
2023-08-01T07:19:45.387Z,10.43
2023-08-01T07:22:15.596Z,9.03
2023-08-01T07:24:44.245Z,13.10
2023-08-01T07:27:14.132Z,8.93
2023-08-01T07:29:42.929Z,12.00
2023-08-01T07:32:13.580Z,21.27
2023-08-01T07:34:42.672Z,15.53
2023-08-01T07:37:11.646Z,29.73
2023-08-01T07:39:40.632Z,13.30
2023-08-01T07:42:09.719Z,12.50
2023-08-01T07:44:38.916Z,8.03
2023-08-01T07:47:07.970Z,17.80
2023-08-01T07:49:40.575Z,10.13
2023-08-01T07:52:12.108Z,8.33
2023-08-01T07:54:40.992Z,6.70
2023-08-01T07:57:10.675Z,7.07
2023-08-01T07:59:39.335Z,6.30
2023-08-01T08:02:08.403Z,4.80
2023-08-01T08:04:38.598Z,6.03
2023-08-01T08:07:08.091Z,6.10
2023-08-01T08:09:36.648Z,5.80
2023-08-01T08:12:10.548Z,6.20
2023-08-01T08:14:39.831Z,6.40
2023-08-01T08:17:11.330Z,4.90
2023-08-01T08:19:42.080Z,6.00
2023-08-01T08:22:10.609Z,4.53
2023-08-01T08:24:39.371Z,5.67
2023-08-01T08:27:08.588Z,7.50
2023-08-01T08:29:38.020Z,7.30
2023-08-01T08:32:10.508Z,6.33
2023-08-01T08:34:40.910Z,3.93
2023-08-01T08:37:11.118Z,6.23
2023-08-01T08:39:40.102Z,6.13
2023-08-01T08:42:09.040Z,7.77
2023-08-01T08:44:40.267Z,6.07
2023-08-01T08:47:11.201Z,5.33
2023-08-01T08:49:40.192Z,4.53
2023-08-01T08:52:14.807Z,4.53
2023-08-01T08:54:43.929Z,4.17
2023-08-01T08:57:13.549Z,4.47
2023-08-01T08:59:42.476Z,4.00
2023-08-01T09:02:11.964Z,3.73
2023-08-01T09:04:41.301Z,3.90
2023-08-01T09:07:13.697Z,4.80
2023-08-01T09:09:45.522Z,5.50
2023-08-01T09:12:15.106Z,5.60
2023-08-01T09:14:45.809Z,5.40
2023-08-01T09:17:17.777Z,21.10
2023-08-01T09:19:46.824Z,21.93
2023-08-01T09:22:17.150Z,10.80
2023-08-01T09:24:56.841Z,9.97
2023-08-01T09:27:25.985Z,7.67
2023-08-01T09:29:54.795Z,7.00
2023-08-01T09:32:23.396Z,5.30
2023-08-01T09:35:01.136Z,6.03
2023-08-01T09:37:41.272Z,5.97
2023-08-01T09:40:11.097Z,8.90
2023-08-01T09:42:43.011Z,7.10
2023-08-01T09:45:16.674Z,7.33
2023-08-01T09:47:48.777Z,5.50
2023-08-01T09:50:23.712Z,5.10
2023-08-01T09:52:54.803Z,4.40
2023-08-01T09:55:29.082Z,4.43
2023-08-01T09:58:01.654Z,4.17
2023-08-01T10:00:31.425Z,3.57
2023-08-01T10:03:02.459Z,3.60
2023-08-01T10:05:33.082Z,3.60
2023-08-01T10:08:05.234Z,3.50
2023-08-01T10:10:34.320Z,3.53
2023-08-01T10:13:03.738Z,3.83
2023-08-01T10:15:32.713Z,4.03
2023-08-01T10:18:03.849Z,4.13
2023-08-01T10:20:33.187Z,3.70
2023-08-01T10:23:03.944Z,4.80
2023-08-01T10:25:33.328Z,4.83
2023-08-01T10:28:04.070Z,5.27
2023-08-01T10:30:33.659Z,5.00
2023-08-01T10:33:04.216Z,5.60
2023-08-01T10:35:37.245Z,5.23
2023-08-01T10:38:11.834Z,4.73
2023-08-01T10:40:43.901Z,4.80
2023-08-01T10:43:22.823Z,3.63
2023-08-01T10:45:51.612Z,3.50
2023-08-01T10:48:20.449Z,6.10
2023-08-01T10:50:57.961Z,9.50
2023-08-01T10:53:28.187Z,5.30
2023-08-01T10:55:57.342Z,24.87
2023-08-01T10:58:30.164Z,11.80
2023-08-01T11:01:02.402Z,5.20
2023-08-01T11:03:37.916Z,5.67
2023-08-01T11:06:07.086Z,4.33
2023-08-01T11:08:41.768Z,4.00
2023-08-01T11:11:15.817Z,5.60
2023-08-01T11:13:53.619Z,5.07
2023-08-01T11:16:22.656Z,4.23
2023-08-01T11:18:51.540Z,4.80
2023-08-01T11:21:29.128Z,5.10
2023-08-01T11:24:00.198Z,6.37
2023-08-01T11:26:28.884Z,15.73
2023-08-01T11:28:57.331Z,23.43
2023-08-01T11:31:32.342Z,62.67
2023-08-01T11:34:01.055Z,53.83
2023-08-01T11:36:31.056Z,50.53
2023-08-01T11:39:02.899Z,28.77
2023-08-01T11:41:32.313Z,16.20
2023-08-01T11:44:05.764Z,12.53
2023-08-01T11:46:37.922Z,9.20
2023-08-01T11:49:07.241Z,6.83
2023-08-01T11:51:42.517Z,5.53
2023-08-01T11:54:14.587Z,5.33
2023-08-01T11:56:45.141Z,7.93
2023-08-01T11:59:15.595Z,5.57
2023-08-01T12:01:47.970Z,6.07
2023-08-01T12:04:27.094Z,8.20
2023-08-01T12:07:02.094Z,32.00
2023-08-01T12:09:34.651Z,43.17
2023-08-01T12:12:03.819Z,29.17
2023-08-01T12:14:32.891Z,20.53
2023-08-01T12:17:02.305Z,15.63
2023-08-01T12:19:30.787Z,8.70
2023-08-01T12:22:01.347Z,7.97
2023-08-01T12:24:31.638Z,6.90
2023-08-01T12:27:00.801Z,6.10
2023-08-01T12:29:29.824Z,6.27
2023-08-01T12:31:59.137Z,5.47
2023-08-01T12:34:27.452Z,6.40
2023-08-01T12:36:56.565Z,7.13
2023-08-01T12:39:27.902Z,12.77
2023-08-01T12:41:58.753Z,23.47
2023-08-01T12:44:27.708Z,26.97
2023-08-01T12:46:56.694Z,31.70
2023-08-01T12:49:25.428Z,30.23
2023-08-01T12:51:54.108Z,13.30
2023-08-01T12:54:23.747Z,11.23
2023-08-01T12:56:52.648Z,9.40
2023-08-01T12:59:22.694Z,20.80
2023-08-01T13:01:52.717Z,19.43
2023-08-01T13:04:21.192Z,16.20
2023-08-01T13:06:50.172Z,15.77
2023-08-01T13:09:21.262Z,17.67
2023-08-01T13:11:49.893Z,15.23
2023-08-01T13:14:19.846Z,13.93
2023-08-01T13:16:51.831Z,8.10
2023-08-01T13:19:21.078Z,7.40
2023-08-01T13:21:50.153Z,6.43
2023-08-01T13:24:19.051Z,4.53
2023-08-01T13:26:48.001Z,4.60
2023-08-01T13:29:17.096Z,4.33
2023-08-01T13:31:46.115Z,4.67
2023-08-01T13:34:16.209Z,26.40
2023-08-01T13:36:46.873Z,17.60
2023-08-01T13:39:15.476Z,18.40
2023-08-01T13:41:44.619Z,13.30
2023-08-01T13:44:13.773Z,13.43
2023-08-01T13:46:42.564Z,22.57
2023-08-01T13:49:11.890Z,17.40
2023-08-01T13:51:45.285Z,7.30
2023-08-01T13:54:14.041Z,6.80
2023-08-01T13:56:43.313Z,4.50
2023-08-01T13:59:12.497Z,4.50
2023-08-01T14:01:41.627Z,4.67
2023-08-01T14:04:10.498Z,3.50
2023-08-01T14:06:39.739Z,4.07
2023-08-01T14:09:12.992Z,3.10
2023-08-01T14:11:41.790Z,3.30
2023-08-01T14:14:10.566Z,3.97
2023-08-01T14:16:39.962Z,4.17
2023-08-01T14:19:09.420Z,3.67
2023-08-01T14:21:38.103Z,4.10
2023-08-01T14:24:09.436Z,4.43
2023-08-01T14:26:41.127Z,3.90
2023-08-01T14:29:10.680Z,10.47
2023-08-01T14:31:39.259Z,16.03
2023-08-01T14:34:07.881Z,53.00
2023-08-01T14:36:36.772Z,36.37
2023-08-01T14:39:16.979Z,11.17
2023-08-01T14:44:28.871Z,13.33
2023-08-01T14:47:00.253Z,10.80
2023-08-01T14:49:31.069Z,10.80
2023-08-01T14:52:02.677Z,10.30
2023-08-01T14:54:40.716Z,6.70
2023-08-01T14:57:11.670Z,6.17
2023-08-01T14:59:40.500Z,5.40
2023-08-01T15:02:11.874Z,4.80
2023-08-01T15:04:41.094Z,4.40
2023-08-01T15:07:10.213Z,4.40
2023-08-01T15:09:39.930Z,9.33
2023-08-01T15:12:10.750Z,10.43
2023-08-01T15:14:39.941Z,7.83
2023-08-01T15:17:10.515Z,5.40
2023-08-01T15:19:40.937Z,5.80
2023-08-01T15:22:10.688Z,25.70
2023-08-01T15:24:40.046Z,28.53
2023-08-01T15:27:08.874Z,16.00
2023-08-01T15:29:39.620Z,11.50
2023-08-01T15:32:09.717Z,15.50
2023-08-01T15:34:38.842Z,7.67
2023-08-01T15:37:10.572Z,9.70
2023-08-01T15:39:43.837Z,17.90
2023-08-01T15:42:13.445Z,18.73
2023-08-01T15:44:43.736Z,11.90
2023-08-01T15:47:12.479Z,9.00
2023-08-01T15:49:43.551Z,5.00
2023-08-01T15:52:16.069Z,6.50
2023-08-01T15:54:44.967Z,4.93
2023-08-01T15:57:13.773Z,12.10
2023-08-01T15:59:48.492Z,8.93
2023-08-01T16:02:17.767Z,9.20
2023-08-01T16:04:47.223Z,11.10
2023-08-01T16:07:34.788Z,18.23
2023-08-01T16:10:03.627Z,8.57
2023-08-01T16:12:31.927Z,7.87
2023-08-01T16:15:02.678Z,6.93
2023-08-01T16:17:31.448Z,4.93
2023-08-01T16:20:00.754Z,3.73
2023-08-01T16:22:29.388Z,4.57
2023-08-01T16:25:01.449Z,4.23
2023-08-01T16:27:48.244Z,5.60
2023-08-01T16:30:18.495Z,6.30
2023-08-01T16:32:47.737Z,5.43
2023-08-01T16:35:17.046Z,5.07
2023-08-01T16:37:45.944Z,4.10
2023-08-01T16:40:15.315Z,4.70
2023-08-01T16:42:45.357Z,4.53
2023-08-01T16:45:14.701Z,4.30
2023-08-01T16:47:48.920Z,4.00
2023-08-01T16:50:23.486Z,5.37
2023-08-01T16:52:52.965Z,6.80
2023-08-01T16:55:22.048Z,5.63
2023-08-01T16:57:55.591Z,5.77
2023-08-01T17:00:29.117Z,5.47
2023-08-01T17:02:59.523Z,5.20
2023-08-01T17:05:30.891Z,5.57
2023-08-01T17:08:01.972Z,6.20
2023-08-01T17:10:34.600Z,30.80
2023-08-01T17:13:03.368Z,17.60
2023-08-01T17:15:33.081Z,15.13
2023-08-01T17:18:03.622Z,8.13
2023-08-01T17:20:37.365Z,5.80
2023-08-01T17:23:05.984Z,5.87
2023-08-01T17:25:35.174Z,5.97
2023-08-01T17:28:04.090Z,4.80
2023-08-01T17:30:33.005Z,9.87
2023-08-01T17:33:03.500Z,9.80
2023-08-01T17:35:32.908Z,52.60
2023-08-01T17:38:02.404Z,52.50
2023-08-01T17:40:32.114Z,14.00
2023-08-01T17:43:02.435Z,11.03
2023-08-01T17:45:31.287Z,12.80
2023-08-01T17:48:00.774Z,12.83
2023-08-01T17:50:30.993Z,15.17
2023-08-01T17:52:59.731Z,16.40
2023-08-01T17:55:28.904Z,16.03
2023-08-01T17:57:58.034Z,14.37
2023-08-01T18:00:27.241Z,10.23
2023-08-01T18:02:56.221Z,10.00
2023-08-01T18:05:25.153Z,6.97
2023-08-01T18:08:00.706Z,7.23
2023-08-01T18:10:32.427Z,12.50
2023-08-01T18:13:01.813Z,31.00
2023-08-01T18:15:30.985Z,27.60
2023-08-01T18:18:00.095Z,15.93
2023-08-01T18:20:28.657Z,27.23
2023-08-01T18:22:59.337Z,26.90
2023-08-01T18:25:28.207Z,14.83
2023-08-01T18:27:59.699Z,15.73
2023-08-01T18:30:30.544Z,18.87
2023-08-01T18:32:59.581Z,16.83
2023-08-01T18:35:28.625Z,13.83
2023-08-01T18:37:59.528Z,11.50
2023-08-01T18:40:29.336Z,9.47
2023-08-01T18:42:58.507Z,7.23
2023-08-01T18:45:27.519Z,6.97
2023-08-01T18:47:56.346Z,5.70
2023-08-01T18:50:25.700Z,6.00
2023-08-01T18:52:54.415Z,4.90
2023-08-01T18:55:25.449Z,5.33
2023-08-01T18:57:54.611Z,4.50
2023-08-01T19:00:23.796Z,6.40
2023-08-01T19:02:52.535Z,6.30
2023-08-01T19:05:22.143Z,7.33
2023-08-01T19:07:51.498Z,6.37
2023-08-01T19:10:20.876Z,6.57
2023-08-01T19:12:51.591Z,8.10
2023-08-01T19:15:20.562Z,7.70
2023-08-01T19:17:50.488Z,6.63
2023-08-01T19:20:19.686Z,5.40
2023-08-01T19:22:51.180Z,5.80
2023-08-01T19:25:20.550Z,6.07
2023-08-01T19:27:51.297Z,6.10
2023-08-01T19:30:19.851Z,6.10
2023-08-01T19:32:48.581Z,9.10
2023-08-01T19:35:22.591Z,13.30
2023-08-01T19:37:51.279Z,9.63
2023-08-01T19:40:20.392Z,10.80
2023-08-01T19:42:52.552Z,9.07
2023-08-01T19:45:21.821Z,6.70
2023-08-01T19:47:52.645Z,4.90
2023-08-01T19:50:22.103Z,6.30
2023-08-01T19:52:52.233Z,18.63
2023-08-01T19:55:22.689Z,17.37
2023-08-01T19:57:54.000Z,21.70
2023-08-01T20:00:23.802Z,9.57
2023-08-01T20:02:53.166Z,3.10
2023-08-01T20:05:22.128Z,4.70
2023-08-01T20:07:52.573Z,3.00
2023-08-01T20:10:21.611Z,3.57
2023-08-01T20:12:50.784Z,3.90
2023-08-01T20:15:21.275Z,3.53
2023-08-01T20:17:50.472Z,5.40
2023-08-01T20:20:20.003Z,4.53
2023-08-01T20:22:50.327Z,5.50
2023-08-01T20:25:19.975Z,11.10
2023-08-01T20:27:49.415Z,29.07
2023-08-01T20:30:18.619Z,67.77
2023-08-01T20:32:49.297Z,71.17
2023-08-01T20:35:18.213Z,41.47
2023-08-01T20:37:47.411Z,18.20
2023-08-01T20:40:18.186Z,5.60
2023-08-01T20:42:48.847Z,5.73
2023-08-01T20:45:17.903Z,4.70
2023-08-01T20:47:49.451Z,3.60
2023-08-01T20:50:18.841Z,3.03
2023-08-01T20:52:48.053Z,2.27
2023-08-01T20:55:17.129Z,2.63
2023-08-01T20:57:45.942Z,52.60
2023-08-01T21:00:15.558Z,23.87
2023-08-01T21:02:45.053Z,17.60
2023-08-01T21:05:15.544Z,9.13
2023-08-01T21:07:44.475Z,6.60
2023-08-01T21:10:14.392Z,7.70
2023-08-01T21:12:47.371Z,5.70
2023-08-01T21:15:18.100Z,7.53
2023-08-01T21:17:46.949Z,6.70
2023-08-01T21:20:18.269Z,5.23
2023-08-01T21:22:46.646Z,6.73
2023-08-01T21:25:15.616Z,8.30
2023-08-01T21:27:44.404Z,22.10
2023-08-01T21:30:14.845Z,23.80
2023-08-01T21:32:44.128Z,37.80
2023-08-01T21:35:12.721Z,47.73
2023-08-01T21:37:43.374Z,44.07
2023-08-01T21:40:13.327Z,32.07
2023-08-01T21:42:42.101Z,31.10
2023-08-01T21:45:12.167Z,13.60
2023-08-01T21:47:41.406Z,10.40
2023-08-01T21:50:11.289Z,10.17
2023-08-01T21:52:39.752Z,8.30
2023-08-01T21:55:10.887Z,6.80
2023-08-01T21:57:39.927Z,7.87
2023-08-01T22:00:11.664Z,9.57
2023-08-01T22:02:43.679Z,8.10
2023-08-01T22:05:12.742Z,7.73
2023-08-01T22:07:43.055Z,9.57
2023-08-01T22:10:13.868Z,78.33
2023-08-01T22:12:44.019Z,229.80
2023-08-01T22:15:13.170Z,226.40
2023-08-01T22:17:42.097Z,208.93
2023-08-01T22:20:11.934Z,131.53
2023-08-01T22:22:41.414Z,42.90
2023-08-01T22:25:16.266Z,33.37
2023-08-01T22:27:45.396Z,12.30
2023-08-01T22:30:14.648Z,10.80
2023-08-01T22:32:43.565Z,9.00
2023-08-01T22:35:12.793Z,9.97
2023-08-01T22:37:41.187Z,11.50
2023-08-01T22:40:11.056Z,10.63
2023-08-01T22:42:41.283Z,11.50
2023-08-01T22:45:11.188Z,12.27
2023-08-01T22:47:41.339Z,15.03
2023-08-01T22:50:10.873Z,24.57
2023-08-01T22:52:40.048Z,44.60
2023-08-01T22:55:09.967Z,60.07
2023-08-01T22:57:38.806Z,40.50
2023-08-01T23:00:10.986Z,33.23
2023-08-01T23:02:40.332Z,24.73
2023-08-01T23:05:12.192Z,21.23
2023-08-01T23:07:43.137Z,19.40
2023-08-01T23:10:12.454Z,16.23
2023-08-01T23:12:43.313Z,15.23
2023-08-01T23:15:13.530Z,12.23
2023-08-01T23:17:42.572Z,12.00
2023-08-01T23:20:11.905Z,10.27
2023-08-01T23:22:41.039Z,10.70
2023-08-01T23:25:09.921Z,12.77
2023-08-01T23:27:39.153Z,84.20
2023-08-01T23:30:09.811Z,147.97
2023-08-01T23:32:40.446Z,81.53
2023-08-01T23:35:10.143Z,97.13
2023-08-01T23:37:39.235Z,37.20
2023-08-01T23:40:08.985Z,22.63
2023-08-01T23:42:38.274Z,21.67
2023-08-01T23:45:08.222Z,23.40
2023-08-01T23:47:37.306Z,28.13
2023-08-01T23:50:08.229Z,29.23
2023-08-01T23:52:37.504Z,30.50
2023-08-01T23:55:07.334Z,40.67
2023-08-01T23:57:36.324Z,39.77
